createdAt,value
2023-04-22T00:00:44.291Z,2.97
2023-04-22T00:03:47.451Z,3.28
2023-04-22T00:06:52.156Z,3.22
2023-04-22T00:09:54.937Z,3.17
2023-04-22T00:12:57.758Z,2.40
2023-04-22T00:16:00.634Z,5.78
2023-04-22T00:19:03.593Z,4.13
2023-04-22T00:22:07.820Z,3.80
2023-04-22T00:25:10.795Z,4.25
2023-04-22T00:28:13.527Z,3.50
2023-04-22T00:31:16.421Z,3.58
2023-04-22T00:34:19.707Z,5.28
2023-04-22T00:37:24.533Z,5.22
2023-04-22T00:40:27.212Z,5.00
2023-04-22T00:43:29.932Z,3.53
2023-04-22T00:46:35.387Z,4.53
2023-04-22T00:49:38.575Z,3.17
2023-04-22T00:52:42.947Z,4.03
2023-04-22T00:55:45.683Z,5.20
2023-04-22T00:58:48.426Z,4.18
2023-04-22T01:01:51.775Z,4.10
2023-04-22T01:04:55.182Z,5.10
2023-04-22T01:07:59.835Z,3.40
2023-04-22T01:11:03.795Z,5.65
2023-04-22T01:14:06.636Z,5.00
2023-04-22T01:17:10.995Z,4.13
2023-04-22T01:20:14.062Z,4.18
2023-04-22T01:23:20.540Z,9.32
2023-04-22T01:26:23.431Z,3.25
2023-04-22T01:29:26.740Z,3.42
2023-04-22T01:32:30.850Z,3.85
2023-04-22T01:35:36.837Z,4.18
2023-04-22T01:38:41.240Z,4.32
2023-04-22T01:41:44.013Z,6.57
2023-04-22T01:44:46.782Z,5.45
2023-04-22T01:47:49.452Z,3.40
2023-04-22T01:50:52.411Z,4.25
2023-04-22T01:53:56.489Z,6.35
2023-04-22T01:56:59.437Z,4.57
2023-04-22T02:00:02.431Z,2.83
2023-04-22T02:03:05.228Z,2.63
2023-04-22T02:06:08.721Z,4.05
2023-04-22T02:09:12.755Z,5.38
2023-04-22T02:12:15.471Z,2.97
2023-04-22T02:15:18.225Z,3.63
2023-04-22T02:18:20.931Z,2.35
2023-04-22T02:21:23.737Z,3.97
2023-04-22T02:24:27.841Z,3.78
2023-04-22T02:27:30.598Z,3.47
2023-04-22T02:30:33.281Z,2.97
2023-04-22T02:33:36.437Z,5.05
2023-04-22T02:36:39.227Z,3.85
2023-04-22T02:39:43.239Z,4.47
2023-04-22T02:42:45.883Z,3.25
2023-04-22T02:45:48.572Z,3.55
2023-04-22T02:48:51.312Z,3.58
2023-04-22T02:51:53.990Z,4.90
2023-04-22T02:54:57.981Z,2.80
2023-04-22T02:58:00.672Z,2.67
2023-04-22T03:01:03.619Z,4.47
2023-04-22T03:04:06.366Z,2.85
2023-04-22T03:07:09.246Z,4.78
2023-04-22T03:10:13.389Z,3.88
2023-04-22T03:13:16.308Z,4.07
2023-04-22T03:16:19.277Z,4.03
2023-04-22T03:19:22.013Z,3.80
2023-04-22T03:22:24.723Z,4.15
2023-04-22T03:25:28.786Z,4.57
2023-04-22T03:28:31.537Z,5.23
2023-04-22T03:31:34.376Z,3.80
2023-04-22T03:34:37.480Z,5.45
2023-04-22T03:37:40.777Z,4.63
2023-04-22T03:40:44.967Z,6.57
2023-04-22T03:43:47.755Z,4.80
2023-04-22T03:46:50.631Z,4.37
2023-04-22T03:49:53.863Z,6.97
2023-04-22T03:52:56.647Z,5.07
2023-04-22T03:56:00.863Z,4.37
2023-04-22T03:59:03.608Z,4.13
2023-04-22T04:02:07.751Z,5.45
2023-04-22T04:05:12.160Z,7.83
2023-04-22T04:08:15.096Z,4.77
2023-04-22T04:11:19.244Z,4.57
2023-04-22T04:14:22.758Z,5.13
2023-04-22T04:17:26.070Z,4.23
2023-04-22T04:20:28.919Z,6.27
2023-04-22T04:23:32.206Z,4.17
2023-04-22T04:26:36.434Z,7.00
2023-04-22T04:29:39.778Z,4.50
2023-04-22T04:32:43.010Z,6.15
2023-04-22T04:35:45.911Z,6.05
2023-04-22T04:38:48.844Z,5.33
2023-04-22T04:41:55.094Z,3.37
2023-04-22T04:44:59.540Z,5.07
2023-04-22T04:48:02.686Z,4.57
2023-04-22T04:51:06.240Z,4.43
2023-04-22T04:54:08.996Z,4.50
2023-04-22T04:57:13.111Z,4.37
2023-04-22T05:00:16.104Z,4.23
2023-04-22T05:03:19.038Z,4.00
2023-04-22T05:06:21.940Z,4.82
2023-04-22T05:09:24.664Z,4.00
2023-04-22T05:12:28.843Z,3.83
2023-04-22T05:15:32.021Z,6.03
2023-04-22T05:18:34.762Z,4.23
2023-04-22T05:21:37.434Z,4.70
2023-04-22T05:24:40.115Z,7.53
2023-04-22T05:27:44.226Z,6.03
2023-04-22T05:30:46.875Z,3.57
2023-04-22T05:33:49.594Z,3.97
2023-04-22T05:36:52.591Z,5.47
2023-04-22T05:39:55.258Z,4.33
2023-04-22T05:42:59.484Z,4.63
2023-04-22T05:46:02.268Z,3.33
2023-04-22T05:49:05.039Z,5.00
2023-04-22T05:52:07.949Z,5.27
2023-04-22T05:55:10.958Z,6.20
2023-04-22T05:58:15.061Z,6.13
2023-04-22T06:01:17.848Z,8.20
2023-04-22T06:04:21.078Z,4.90
2023-04-22T06:07:24.196Z,6.97
2023-04-22T06:10:27.023Z,5.57
2023-04-22T06:13:31.067Z,8.35
2023-04-22T06:16:34.738Z,6.60
2023-04-22T06:19:38.349Z,7.93
2023-04-22T06:22:41.357Z,6.30
2023-04-22T06:25:44.594Z,9.05
2023-04-22T06:28:48.657Z,6.78
2023-04-22T06:31:51.712Z,4.70
2023-04-22T06:34:54.388Z,4.60
2023-04-22T06:37:57.080Z,6.35
2023-04-22T06:40:59.756Z,7.32
2023-04-22T06:44:03.877Z,6.65
2023-04-22T06:47:06.759Z,5.20
2023-04-22T06:50:10.726Z,6.22
2023-04-22T06:53:13.572Z,3.97
2023-04-22T06:56:16.573Z,5.70
2023-04-22T06:59:20.679Z,6.38
2023-04-22T07:02:23.910Z,4.43
2023-04-22T07:05:26.887Z,6.22
2023-04-22T07:08:29.728Z,6.18
2023-04-22T07:11:33.013Z,8.13
2023-04-22T07:14:38.070Z,5.68
2023-04-22T07:17:41.116Z,5.13
2023-04-22T07:20:44.033Z,6.22
2023-04-22T07:23:46.655Z,4.95
2023-04-22T07:26:49.464Z,5.63
2023-04-22T07:29:53.454Z,5.15
2023-04-22T07:32:56.317Z,5.82
2023-04-22T07:35:59.134Z,4.18
2023-04-22T07:39:01.756Z,4.30
2023-04-22T07:42:04.647Z,4.25
2023-04-22T07:45:09.877Z,3.75
2023-04-22T07:48:12.849Z,4.25
2023-04-22T07:51:15.836Z,3.97
2023-04-22T07:54:18.793Z,4.68
2023-04-22T07:57:22.702Z,2.80
2023-04-22T08:00:26.925Z,3.92
2023-04-22T08:03:29.866Z,3.58
2023-04-22T08:06:32.944Z,4.68
2023-04-22T08:09:35.841Z,3.08
2023-04-22T08:12:38.604Z,5.10
2023-04-22T08:15:42.755Z,4.10
2023-04-22T08:18:45.605Z,2.65
2023-04-22T08:21:48.506Z,3.85
2023-04-22T08:24:51.267Z,5.60
2023-04-22T08:27:54.081Z,5.55
2023-04-22T08:30:58.270Z,7.40
2023-04-22T08:34:00.924Z,3.58
2023-04-22T08:37:03.888Z,3.90
2023-04-22T08:40:08.191Z,3.60
2023-04-22T08:43:11.011Z,3.13
2023-04-22T08:46:16.772Z,4.32
2023-04-22T08:49:20.473Z,3.78
2023-04-22T08:52:23.365Z,2.58
2023-04-22T08:55:26.883Z,2.92
2023-04-22T08:58:31.016Z,5.00
2023-04-22T09:01:36.075Z,3.35
2023-04-22T09:04:38.902Z,11.10
2023-04-22T09:07:42.500Z,5.40
2023-04-22T09:10:45.237Z,7.30
2023-04-22T09:13:48.273Z,3.00
2023-04-22T09:16:52.391Z,3.80
2023-04-22T09:19:59.146Z,2.65
2023-04-22T09:23:04.934Z,11.40
2023-04-22T09:26:09.110Z,5.30
2023-04-22T09:29:15.837Z,3.10
2023-04-22T09:32:20.809Z,6.50
2023-04-22T09:35:31.913Z,2.65
2023-04-22T09:38:34.555Z,1.75
2023-04-22T09:41:38.759Z,2.80
2023-04-22T09:44:41.732Z,1.95
2023-04-22T09:47:47.627Z,1.80
2023-04-22T09:50:51.777Z,2.28
2023-04-22T09:54:08.935Z,2.60
2023-04-22T09:57:15.194Z,1.67
2023-04-22T10:00:18.689Z,1.80
2023-04-22T10:03:23.023Z,1.23
2023-04-22T10:06:25.875Z,1.85
2023-04-22T10:09:28.682Z,1.83
2023-04-22T10:12:35.833Z,1.77
2023-04-22T10:15:41.485Z,2.25
2023-04-22T10:18:46.334Z,2.00
2023-04-22T10:21:51.327Z,2.03
2023-04-22T10:24:56.078Z,2.03
2023-04-22T10:28:04.321Z,1.55
2023-04-22T10:31:08.212Z,1.63
2023-04-22T10:34:15.319Z,3.67
2023-04-22T10:37:20.767Z,1.40
2023-04-22T10:40:23.873Z,1.63
2023-04-22T10:43:42.267Z,0.88
2023-04-22T10:47:01.656Z,1.17
2023-04-22T10:50:18.880Z,2.42
2023-04-22T10:53:37.669Z,1.45
2023-04-22T10:57:04.578Z,2.85
2023-04-22T11:00:52.541Z,1.45
2023-04-22T11:04:23.369Z,1.25
2023-04-22T11:07:35.720Z,1.45
2023-04-22T11:10:44.159Z,1.88
2023-04-22T11:13:50.602Z,2.22
2023-04-22T11:16:53.960Z,4.72
2023-04-22T11:19:57.457Z,0.93
2023-04-22T11:23:01.553Z,2.13
2023-04-22T11:26:06.490Z,1.85
2023-04-22T11:29:09.784Z,2.03
2023-04-22T11:32:12.933Z,3.20
2023-04-22T11:35:22.034Z,1.10
2023-04-22T11:38:26.300Z,1.77
2023-04-22T11:41:29.973Z,1.00
2023-04-22T11:44:32.826Z,1.00
2023-04-22T11:47:36.606Z,2.80
2023-04-22T11:50:41.157Z,1.88
2023-04-22T11:53:52.318Z,2.92
2023-04-22T11:56:55.658Z,1.75
2023-04-22T11:59:59.878Z,2.72
2023-04-22T12:03:04.720Z,1.10
2023-04-22T12:06:07.784Z,1.25
2023-04-22T12:09:14.106Z,1.17
2023-04-22T12:12:16.777Z,1.95
2023-04-22T12:15:19.414Z,2.42
2023-04-22T12:18:30.018Z,1.50
2023-04-22T12:21:32.771Z,2.47
2023-04-22T12:24:36.800Z,1.70
2023-04-22T12:27:39.392Z,3.13
2023-04-22T12:30:42.248Z,1.77
2023-04-22T12:33:46.199Z,1.63
2023-04-22T12:36:48.914Z,1.42
2023-04-22T12:39:52.873Z,2.33
2023-04-22T12:42:55.574Z,2.88
2023-04-22T12:45:58.209Z,4.15
2023-04-22T12:49:01.241Z,3.20
2023-04-22T12:52:03.838Z,2.20
2023-04-22T12:55:09.117Z,1.85
2023-04-22T12:58:12.252Z,4.63
2023-04-22T13:01:14.936Z,1.48
2023-04-22T13:04:19.874Z,2.20
2023-04-22T13:07:22.685Z,1.42
2023-04-22T13:10:28.262Z,1.70
2023-04-22T13:13:30.911Z,1.35
2023-04-22T13:16:33.517Z,1.77
2023-04-22T13:19:36.396Z,2.03
2023-04-22T13:22:40.472Z,1.45
2023-04-22T13:25:44.462Z,1.10
2023-04-22T13:28:47.056Z,2.63
2023-04-22T13:31:49.718Z,2.72
2023-04-22T13:34:52.576Z,3.00
2023-04-22T13:37:55.288Z,1.45
2023-04-22T13:41:01.198Z,1.50
2023-04-22T13:44:05.423Z,1.38
2023-04-22T13:47:08.054Z,2.22
2023-04-22T13:50:11.631Z,0.98
2023-04-22T13:53:14.516Z,2.33
2023-04-22T13:56:18.503Z,1.77
2023-04-22T13:59:21.166Z,2.38
2023-04-22T14:02:23.936Z,1.10
2023-04-22T14:05:26.935Z,1.60
2023-04-22T14:08:29.814Z,2.70
2023-04-22T14:11:33.870Z,1.85
2023-04-22T14:14:36.535Z,3.95
2023-04-22T14:17:39.316Z,1.35
2023-04-22T14:20:43.073Z,2.05
2023-04-22T14:23:45.826Z,1.92
2023-04-22T14:26:49.798Z,2.53
2023-04-22T14:29:53.212Z,2.88
2023-04-22T14:32:55.893Z,3.42
2023-04-22T14:35:58.610Z,3.97
2023-04-22T14:39:01.258Z,2.72
2023-04-22T14:42:05.778Z,2.75
2023-04-22T14:45:09.216Z,4.50
2023-04-22T14:48:11.891Z,1.90
2023-04-22T14:51:14.539Z,1.83
2023-04-22T14:54:17.188Z,1.20
2023-04-22T14:57:21.151Z,1.80
2023-04-22T15:00:23.991Z,1.88
2023-04-22T15:03:26.904Z,3.33
2023-04-22T15:06:29.641Z,1.85
2023-04-22T15:09:32.843Z,2.42
2023-04-22T15:12:36.841Z,2.03
2023-04-22T15:15:39.575Z,2.95
2023-04-22T15:18:43.107Z,1.40
2023-04-22T15:21:46.714Z,2.17
2023-04-22T15:24:49.317Z,1.73
2023-04-22T15:27:56.398Z,1.10
2023-04-22T15:30:59.033Z,0.75
2023-04-22T15:34:01.663Z,1.70
2023-04-22T15:37:04.439Z,1.48
2023-04-22T15:40:09.947Z,3.35
2023-04-22T15:43:13.912Z,1.15
2023-04-22T15:46:16.541Z,0.98
2023-04-22T15:49:19.223Z,1.15
2023-04-22T15:52:21.824Z,1.85
2023-04-22T15:55:24.651Z,2.80
2023-04-22T15:58:32.391Z,2.10
2023-04-22T16:01:40.303Z,1.63
2023-04-22T16:04:43.303Z,1.25
2023-04-22T16:07:46.325Z,1.33
2023-04-22T16:10:49.010Z,1.63
2023-04-22T16:13:52.983Z,1.98
2023-04-22T16:16:55.748Z,1.23
2023-04-22T16:19:58.503Z,2.30
2023-04-22T16:23:01.241Z,1.48
2023-04-22T16:26:05.584Z,1.52
2023-04-22T16:29:09.557Z,1.45
2023-04-22T16:32:12.360Z,1.23
2023-04-22T16:35:14.950Z,2.75
2023-04-22T16:38:17.646Z,1.98
2023-04-22T16:41:21.536Z,1.40
2023-04-22T16:44:25.659Z,1.35
2023-04-22T16:47:28.353Z,3.85
2023-04-22T16:50:31.035Z,1.30
2023-04-22T16:53:33.771Z,2.08
2023-04-22T16:56:37.463Z,1.27
2023-04-22T16:59:41.637Z,2.08
2023-04-22T17:02:44.660Z,2.67
2023-04-22T17:05:47.287Z,1.50
2023-04-22T17:08:49.978Z,3.17
2023-04-22T17:11:52.611Z,2.08
2023-04-22T17:14:56.545Z,2.47
2023-04-22T17:17:59.268Z,1.45
2023-04-22T17:21:01.933Z,1.90
2023-04-22T17:24:05.827Z,2.10
2023-04-22T17:27:08.528Z,2.85
2023-04-22T17:30:13.447Z,3.80
2023-04-22T17:33:16.237Z,1.92
2023-04-22T17:36:20.081Z,1.60
2023-04-22T17:39:22.778Z,2.40
2023-04-22T17:42:38.905Z,1.73
2023-04-22T17:45:46.814Z,1.45
2023-04-22T17:48:49.427Z,1.90
2023-04-22T17:51:52.019Z,3.10
2023-04-22T17:54:54.722Z,2.28
2023-04-22T17:57:57.364Z,1.98
2023-04-22T18:01:01.392Z,2.15
2023-04-22T18:04:04.580Z,3.65
2023-04-22T18:07:07.311Z,2.92
2023-04-22T18:10:11.641Z,2.20
2023-04-22T18:13:14.470Z,2.65
2023-04-22T18:16:18.545Z,2.75
2023-04-22T18:19:21.302Z,3.55
2023-04-22T18:22:25.145Z,2.40
2023-04-22T18:25:28.195Z,2.13
2023-04-22T18:28:30.836Z,3.13
2023-04-22T18:31:34.806Z,2.35
2023-04-22T18:34:37.609Z,2.92
2023-04-22T18:37:40.231Z,3.35
2023-04-22T18:40:42.827Z,2.50
2023-04-22T18:43:47.081Z,3.00
2023-04-22T18:46:52.938Z,2.25
2023-04-22T18:49:55.561Z,2.00
2023-04-22T18:52:58.157Z,3.42
2023-04-22T18:56:00.911Z,2.25
2023-04-22T18:59:03.558Z,2.78
2023-04-22T19:02:08.363Z,2.85
2023-04-22T19:05:13.992Z,2.50
2023-04-22T19:08:17.163Z,0.90
2023-04-22T19:11:20.119Z,1.38
2023-04-22T19:14:22.751Z,1.80
2023-04-22T19:17:27.214Z,1.80
2023-04-22T19:20:29.984Z,1.45
2023-04-22T19:23:32.642Z,2.22
2023-04-22T19:26:35.533Z,2.88
2023-04-22T19:29:38.568Z,1.50
2023-04-22T19:32:43.094Z,2.22
2023-04-22T19:35:46.239Z,2.58
2023-04-22T19:38:48.948Z,2.28
2023-04-22T19:41:51.770Z,1.15
2023-04-22T19:44:54.749Z,1.88
2023-04-22T19:47:59.920Z,1.38
2023-04-22T19:51:04.417Z,2.15
2023-04-22T19:54:08.355Z,2.03
2023-04-22T19:57:12.815Z,2.17
2023-04-22T20:00:16.418Z,2.50
2023-04-22T20:03:22.585Z,2.72
2023-04-22T20:06:25.707Z,2.00
2023-04-22T20:09:29.015Z,3.03
2023-04-22T20:12:32.231Z,1.70
2023-04-22T20:15:35.289Z,1.40
2023-04-22T20:18:39.848Z,2.55
2023-04-22T20:21:42.922Z,1.50
2023-04-22T20:24:46.654Z,1.50
2023-04-22T20:27:49.659Z,1.15
2023-04-22T20:30:52.664Z,1.48
2023-04-22T20:33:57.253Z,1.92
2023-04-22T20:37:02.066Z,1.77
2023-04-22T20:40:08.187Z,1.75
2023-04-22T20:43:11.226Z,3.47
2023-04-22T20:46:14.136Z,1.75
2023-04-22T20:49:18.417Z,1.98
2023-04-22T20:52:21.118Z,1.30
2023-04-22T20:55:24.019Z,2.70
2023-04-22T20:58:28.021Z,2.45
2023-04-22T21:01:31.386Z,3.70
2023-04-22T21:04:36.354Z,3.58
2023-04-22T21:07:40.684Z,2.63
2023-04-22T21:10:44.026Z,2.45
2023-04-22T21:13:47.472Z,2.75
2023-04-22T21:16:56.274Z,2.40
2023-04-22T21:20:02.676Z,3.15
2023-04-22T21:23:07.773Z,2.83
2023-04-22T21:26:11.384Z,1.88
2023-04-22T21:29:14.663Z,2.72
2023-04-22T21:32:20.102Z,4.05
2023-04-22T21:35:24.648Z,1.90
2023-04-22T21:38:27.516Z,2.13
2023-04-22T21:41:30.253Z,2.60
2023-04-22T21:44:33.120Z,2.53
2023-04-22T21:47:35.940Z,1.90
2023-04-22T21:50:39.980Z,1.88
2023-04-22T21:53:42.774Z,1.30
2023-04-22T21:56:45.610Z,2.33
2023-04-22T21:59:48.298Z,1.83
2023-04-22T22:02:52.437Z,1.67
2023-04-22T22:05:56.796Z,2.88
2023-04-22T22:08:59.678Z,1.23
2023-04-22T22:12:02.923Z,2.00
2023-04-22T22:15:08.558Z,2.53
2023-04-22T22:18:11.300Z,3.05
2023-04-22T22:21:15.269Z,1.40
2023-04-22T22:24:18.016Z,1.90
2023-04-22T22:27:20.776Z,2.67
2023-04-22T22:30:23.456Z,2.13
2023-04-22T22:33:26.232Z,2.03
2023-04-22T22:36:30.303Z,1.70
2023-04-22T22:39:33.128Z,3.58
2023-04-22T22:42:36.117Z,3.90
2023-04-22T22:45:38.933Z,2.00
2023-04-22T22:48:41.766Z,1.60
2023-04-22T22:51:45.935Z,2.25
2023-04-22T22:54:49.936Z,1.63
2023-04-22T22:57:52.602Z,2.45
2023-04-22T23:00:55.392Z,1.38
2023-04-22T23:03:58.397Z,5.70
2023-04-22T23:07:02.644Z,1.40
2023-04-22T23:10:06.451Z,5.68
2023-04-22T23:13:09.152Z,1.65
2023-04-22T23:16:12.097Z,1.83
2023-04-22T23:19:16.983Z,4.90
2023-04-22T23:22:21.579Z,1.60
2023-04-22T23:25:25.066Z,2.88
2023-04-22T23:28:28.372Z,2.05
2023-04-22T23:31:33.104Z,1.45
2023-04-22T23:34:36.682Z,2.95
2023-04-22T23:37:44.457Z,2.05
2023-04-22T23:40:47.281Z,1.75
2023-04-22T23:43:50.064Z,2.45
2023-04-22T23:46:52.936Z,1.73
2023-04-22T23:49:55.785Z,1.52
2023-04-22T23:52:59.865Z,1.52
2023-04-22T23:56:03.032Z,3.53
2023-04-22T23:59:07.237Z,2.28
